createdAt,value
2019-05-03T00:02:06.951Z,9.10
2019-05-03T00:05:29.556Z,9.16
2019-05-03T00:08:37.351Z,9.25
2019-05-03T00:11:45.325Z,9.24
2019-05-03T00:14:56.644Z,9.17
2019-05-03T00:18:04.507Z,8.98
2019-05-03T00:21:12.125Z,8.96
2019-05-03T00:24:19.768Z,8.87
2019-05-03T00:27:28.526Z,8.81
2019-05-03T00:30:36.028Z,8.85
2019-05-03T00:33:45.319Z,8.80
2019-05-03T00:36:56.360Z,8.91
2019-05-03T00:40:06.564Z,8.99
2019-05-03T00:43:14.038Z,8.97
2019-05-03T00:46:22.072Z,8.98
2019-05-03T00:49:31.993Z,8.90
2019-05-03T00:52:39.668Z,8.88
2019-05-03T00:55:47.681Z,8.77
2019-05-03T00:58:58.350Z,8.86
2019-05-03T01:02:05.724Z,8.78
2019-05-03T01:05:13.545Z,8.67
2019-05-03T01:08:22.061Z,8.80
2019-05-03T01:11:29.726Z,8.58
2019-05-03T01:14:39.102Z,8.64
2019-05-03T01:17:50.030Z,8.66
2019-05-03T01:20:57.492Z,8.64
2019-05-03T01:24:05.147Z,8.58
2019-05-03T01:27:12.666Z,8.64
2019-05-03T01:30:20.260Z,8.65
2019-05-03T01:33:27.910Z,8.49
2019-05-03T01:36:35.403Z,8.33
2019-05-03T01:39:42.800Z,8.45
2019-05-03T01:42:51.853Z,8.44
2019-05-03T01:46:02.534Z,8.48
2019-05-03T01:49:19.271Z,8.38
2019-05-03T01:52:32.445Z,8.42
2019-05-03T01:55:52.319Z,8.32
2019-05-03T01:59:01.708Z,8.47
2019-05-03T02:02:28.315Z,8.36
2019-05-03T02:05:43.139Z,8.33
2019-05-03T02:08:52.169Z,8.50
2019-05-03T02:11:59.776Z,8.31
2019-05-03T02:15:07.882Z,8.37
2019-05-03T02:18:15.383Z,8.29
2019-05-03T02:21:22.753Z,8.22
2019-05-03T02:24:30.110Z,8.23
2019-05-03T02:27:37.662Z,8.48
2019-05-03T02:30:44.921Z,8.38
2019-05-03T02:33:53.349Z,8.37
2019-05-03T02:37:02.929Z,8.52
2019-05-03T02:40:12.992Z,8.50
2019-05-03T02:43:27.527Z,8.41
2019-05-03T02:46:57.225Z,8.32
2019-05-03T02:50:11.823Z,8.37
2019-05-03T02:53:19.468Z,8.28
2019-05-03T02:56:27.025Z,8.26
2019-05-03T02:59:34.802Z,8.30
2019-05-03T03:02:45.414Z,8.36
2019-05-03T03:05:57.358Z,8.31
2019-05-03T03:09:06.228Z,8.34
2019-05-03T03:12:15.278Z,8.43
2019-05-03T03:15:25.695Z,8.35
2019-05-03T03:18:38.231Z,8.28
2019-05-03T03:21:48.610Z,8.40
2019-05-03T03:24:59.399Z,8.47
2019-05-03T03:28:11.414Z,8.36
2019-05-03T03:32:09.029Z,8.57
2019-05-03T03:35:29.082Z,8.55
2019-05-03T03:38:35.397Z,8.44
2019-05-03T03:41:45.817Z,8.34
2019-05-03T03:44:56.246Z,8.34
2019-05-03T03:48:05.272Z,8.47
2019-05-03T03:51:17.153Z,8.46
2019-05-03T03:54:26.029Z,8.59
2019-05-03T03:57:35.696Z,8.69
2019-05-03T04:00:46.228Z,8.59
2019-05-03T04:03:56.193Z,8.42
2019-05-03T04:07:06.528Z,8.43
2019-05-03T04:10:15.686Z,8.43
2019-05-03T04:13:25.537Z,8.49
2019-05-03T04:16:45.497Z,8.64
2019-05-03T04:19:55.904Z,8.63
2019-05-03T04:23:05.288Z,8.58
2019-05-03T04:26:16.010Z,8.53
2019-05-03T04:29:52.014Z,8.60
2019-05-03T04:33:00.121Z,8.50
2019-05-03T04:36:09.579Z,8.58
2019-05-03T04:39:20.235Z,8.51
2019-05-03T04:42:27.080Z,8.56
2019-05-03T04:45:36.608Z,8.57
2019-05-03T04:48:44.906Z,8.65
2019-05-03T04:51:52.721Z,8.69
2019-05-03T04:55:00.281Z,8.62
2019-05-03T04:58:07.552Z,8.86
2019-05-03T05:01:15.760Z,8.86
2019-05-03T05:04:25.381Z,8.90
2019-05-03T05:07:34.868Z,9.09
2019-05-03T05:10:42.018Z,9.07
2019-05-03T05:13:49.301Z,9.21
2019-05-03T05:16:56.474Z,9.32
2019-05-03T05:20:14.530Z,9.44
2019-05-03T05:23:22.212Z,9.52
2019-05-03T05:26:42.119Z,9.51
2019-05-03T05:29:49.987Z,9.48
2019-05-03T05:32:57.654Z,9.56
2019-05-03T05:36:05.400Z,9.65
2019-05-03T05:39:18.589Z,9.47
2019-05-03T05:42:25.174Z,9.42
2019-05-03T05:45:34.832Z,9.42
2019-05-03T05:48:47.726Z,9.54
2019-05-03T12:53:24.869Z,15.43
2019-05-03T12:56:33.586Z,13.78
2019-05-03T13:00:02.376Z,14.12
2019-05-03T13:03:15.215Z,12.89
2019-05-03T13:06:22.554Z,12.99
2019-05-03T13:09:30.137Z,14.40
2019-05-03T13:12:49.708Z,13.82
2019-05-03T13:15:47.656Z,12.70
2019-05-03T13:18:55.446Z,12.18
2019-05-03T13:22:03.084Z,10.74
2019-05-03T13:25:11.901Z,10.55
2019-05-03T13:28:19.684Z,10.56
2019-05-03T13:31:27.289Z,10.53
2019-05-03T13:34:35.455Z,10.21
2019-05-03T13:37:45.087Z,9.95
2019-05-03T13:40:54.388Z,9.84
2019-05-03T13:44:02.268Z,9.64
2019-05-03T13:47:10.090Z,9.70
2019-05-03T13:50:17.672Z,9.80
2019-05-03T13:53:25.434Z,9.83
2019-05-03T13:56:35.163Z,9.86
2019-05-03T13:59:44.840Z,10.00
2019-05-03T14:02:52.532Z,10.18
2019-05-03T14:06:00.388Z,10.28
2019-05-03T14:09:08.057Z,10.46
2019-05-03T14:12:17.428Z,10.30
2019-05-03T14:15:25.506Z,9.97
2019-05-03T14:18:35.189Z,10.20
2019-05-03T14:21:47.518Z,10.15
2019-05-03T14:24:55.616Z,10.50
2019-05-03T14:28:05.330Z,10.71
2019-05-03T14:31:14.397Z,11.17
2019-05-03T14:34:22.307Z,11.59
2019-05-03T14:37:30.750Z,11.34
2019-05-03T14:40:41.801Z,11.08
2019-05-03T14:43:50.284Z,11.18
2019-05-03T14:46:59.215Z,11.03
2019-05-03T14:50:07.604Z,10.64
2019-05-03T14:53:15.058Z,10.58
2019-05-03T14:56:32.092Z,10.62
2019-05-03T15:00:16.929Z,10.70
2019-05-03T15:03:25.560Z,10.87
2019-05-03T15:06:35.272Z,11.11
2019-05-03T15:09:43.119Z,10.69
2019-05-03T15:12:50.846Z,10.38
2019-05-03T15:15:58.214Z,9.80
2019-05-03T15:19:05.882Z,9.43
2019-05-03T15:22:14.650Z,9.42
2019-05-03T15:25:25.106Z,9.55
2019-05-03T15:28:35.667Z,9.49
2019-05-03T15:31:45.191Z,9.58
2019-05-03T15:34:55.177Z,9.66
2019-05-03T15:38:02.482Z,9.78
2019-05-03T15:41:09.887Z,9.87
2019-05-03T15:44:29.947Z,9.84
2019-05-03T15:47:42.716Z,9.96
2019-05-03T15:50:50.658Z,10.17
2019-05-03T15:53:58.039Z,10.26
2019-05-03T15:57:05.550Z,10.20
2019-05-03T16:00:15.353Z,10.30
2019-05-03T16:03:22.815Z,10.55
2019-05-03T16:06:30.283Z,10.70
2019-05-03T16:09:37.567Z,10.88
2019-05-03T16:12:45.403Z,11.01
2019-05-03T16:15:55.043Z,10.92
2019-05-03T16:19:05.289Z,10.98
2019-05-03T16:22:14.396Z,10.93
2019-05-03T16:25:22.455Z,10.80
2019-05-03T16:28:36.805Z,10.68
2019-05-03T16:31:45.029Z,10.85
2019-05-03T16:34:52.720Z,10.79
2019-05-03T16:38:00.106Z,10.89
2019-05-03T16:41:08.311Z,10.60
2019-05-03T16:44:16.627Z,10.54
2019-05-03T16:47:24.973Z,10.33
2019-05-03T16:50:34.584Z,10.21
2019-05-03T16:53:44.358Z,10.34
2019-05-03T16:56:52.113Z,10.15
2019-05-03T16:59:59.656Z,10.03
2019-05-03T17:03:08.012Z,10.12
2019-05-03T17:06:45.200Z,10.04
2019-05-03T17:10:15.327Z,10.19
2019-05-03T17:13:22.882Z,10.03
2019-05-03T17:16:30.313Z,9.97
2019-05-03T17:19:37.675Z,10.04
2019-05-03T17:22:45.554Z,9.97
2019-05-03T17:25:53.224Z,9.97
2019-05-03T17:29:01.198Z,9.82
2019-05-03T17:32:10.915Z,9.89
2019-05-03T17:35:18.041Z,9.95
2019-05-03T17:38:25.912Z,9.85
2019-05-03T17:41:51.912Z,9.85
2019-05-03T17:44:59.507Z,9.83
2019-05-03T17:48:07.221Z,9.94
2019-05-03T17:51:35.128Z,9.81
2019-05-03T17:55:02.437Z,9.76
2019-05-03T17:58:17.810Z,9.87
2019-05-03T18:01:51.025Z,9.72
2019-05-03T18:05:18.333Z,9.62
2019-05-03T18:08:32.487Z,9.54
2019-05-03T18:11:42.644Z,9.76
2019-05-03T18:14:50.152Z,9.61
2019-05-03T18:17:57.665Z,9.73
2019-05-03T18:21:05.120Z,9.40
2019-05-03T18:24:12.631Z,9.41
2019-05-03T18:27:20.278Z,9.34
2019-05-03T18:30:28.034Z,9.48
2019-05-03T18:33:35.631Z,9.33
2019-05-03T18:36:45.024Z,9.33
2019-05-03T18:39:54.496Z,9.36
2019-05-03T18:43:07.571Z,9.37
2019-05-03T18:46:24.575Z,9.30
2019-05-03T18:49:32.147Z,9.24
2019-05-03T18:52:40.165Z,9.20
2019-05-03T18:55:47.496Z,9.21
2019-05-03T18:58:54.939Z,9.28
2019-05-03T19:02:02.640Z,9.30
2019-05-03T19:05:10.585Z,9.56
2019-05-03T19:08:42.340Z,9.40
2019-05-03T19:12:08.667Z,9.46
2019-05-03T19:15:16.038Z,9.33
2019-05-03T19:18:41.459Z,9.29
2019-05-03T19:21:49.986Z,9.29
2019-05-03T19:24:57.694Z,9.21
2019-05-03T19:28:07.837Z,9.31
2019-05-03T19:31:15.095Z,9.36
2019-05-03T19:34:24.262Z,9.32
2019-05-03T19:37:32.305Z,9.60
2019-05-03T19:40:40.114Z,9.37
2019-05-03T19:43:47.494Z,9.37
2019-05-03T19:46:55.083Z,9.19
2019-05-03T19:50:05.071Z,9.14
2019-05-03T19:53:20.636Z,8.98
2019-05-03T19:56:28.549Z,8.92
2019-05-03T19:59:56.500Z,8.95
2019-05-03T20:03:12.127Z,8.92
2019-05-03T20:06:26.538Z,8.88
2019-05-03T20:09:35.008Z,8.95
2019-05-03T20:12:42.265Z,8.92
2019-05-03T20:15:49.586Z,8.91
2019-05-03T20:18:57.569Z,8.79
2019-05-03T20:22:05.227Z,8.84
2019-05-03T20:25:12.829Z,8.85
2019-05-03T20:28:20.287Z,8.83
2019-05-03T20:31:27.852Z,8.84
2019-05-03T20:34:36.602Z,8.88
2019-05-03T20:37:44.876Z,8.91
2019-05-03T20:40:55.361Z,8.83
2019-05-03T20:44:21.670Z,8.72
2019-05-03T20:47:32.148Z,8.80
2019-05-03T20:50:39.448Z,8.75
2019-05-03T20:53:46.786Z,8.71
2019-05-03T20:56:54.658Z,8.69
2019-05-03T21:00:04.536Z,8.80
2019-05-03T21:03:12.409Z,8.77
2019-05-03T21:06:32.446Z,8.67
2019-05-03T21:09:29.021Z,8.64
2019-05-03T21:12:36.672Z,8.60
2019-05-03T21:15:54.736Z,8.64
2019-05-03T21:19:21.731Z,8.45
2019-05-03T21:22:35.421Z,8.51
2019-05-03T21:26:06.459Z,8.66
2019-05-03T21:29:00.627Z,8.53
2019-05-03T21:32:08.214Z,8.52
2019-05-03T21:35:16.544Z,8.56
2019-05-03T21:38:24.963Z,8.56
2019-05-03T21:41:37.942Z,8.52
2019-05-03T21:44:46.200Z,8.65
2019-05-03T21:48:11.140Z,8.44
2019-05-03T21:51:20.174Z,8.62
2019-05-03T21:54:27.714Z,8.65
2019-05-03T21:57:34.958Z,8.59
2019-05-03T22:01:01.720Z,8.68
2019-05-03T22:04:09.453Z,8.75
2019-05-03T22:07:16.836Z,8.63
2019-05-03T22:10:25.535Z,8.75
2019-05-03T22:13:34.861Z,8.75
2019-05-03T22:17:14.956Z,9.04
2019-05-03T22:20:29.340Z,9.01
2019-05-03T22:24:08.329Z,8.81
2019-05-03T22:27:16.496Z,8.78
2019-05-03T22:30:24.673Z,8.79
2019-05-03T22:33:33.110Z,8.67
2019-05-03T22:36:40.253Z,8.75
2019-05-03T22:39:47.719Z,8.65
2019-05-03T22:42:55.114Z,8.64
2019-05-03T22:46:02.586Z,8.64
2019-05-03T22:49:09.967Z,8.66
2019-05-03T22:52:17.205Z,8.64
2019-05-03T22:55:24.686Z,8.48
2019-05-03T22:58:32.323Z,8.35
2019-05-03T23:01:39.852Z,8.16
2019-05-03T23:04:47.350Z,7.96
2019-05-03T23:07:55.226Z,7.81
2019-05-03T23:11:05.131Z,7.76
2019-05-03T23:14:12.439Z,7.76
2019-05-03T23:17:19.692Z,7.78
2019-05-03T23:20:37.440Z,7.93
2019-05-03T23:23:48.302Z,7.89
2019-05-03T23:26:55.860Z,7.79
2019-05-03T23:30:04.955Z,7.74
2019-05-03T23:33:12.911Z,7.71
2019-05-03T23:36:32.820Z,7.68
2019-05-03T23:39:31.240Z,7.65
2019-05-03T23:42:38.710Z,7.48
2019-05-03T23:45:46.896Z,7.53
2019-05-03T23:48:54.253Z,7.37
2019-05-03T23:52:07.492Z,7.38
2019-05-03T23:55:25.253Z,7.28
2019-05-03T23:58:35.161Z,7.17
